Hurlburt Field, FL

8:46 PM CDT on July 24, 2017 (GMT -0500)
Hurlburt

Weather History for KHRT - November, 2011

Change the Weather History Date:

Tuesday, November 15, 2011

  Actual Average Record
Temperature  
Mean Temperature 70 °F -  
Max Temperature 73 °F 69 °F 80 °F (2005)
Min Temperature 68 °F 50 °F 31 °F (2014)
Cooling Degree Days 6    
Growing Degree Days 20 (Base 50)    
Moisture  
Dew Point 70 °F    
Average Humidity 96    
Maximum Humidity 100    
Minimum Humidity 87    
Precipitation  
Precipitation 0.00 in - - ()
Sea Level Pressure  
Sea Level Pressure 29.96 in    
Wind  
Wind Speed 10 mph (SE)    
Max Wind Speed 17 mph    
Max Gust Speed 22 mph    
Visibility 9 miles    
Events Rain    
Averages and records for this station are not official NWS values.
T = Trace of Precipitation, MM = Missing Value Source: NWS Daily Summary

Daily Weather History Graph

Daily Weather History Graph

Search for Another Location

Airport or City:

Trip Planner

Search our weather history database for the weather conditions in past years. The results will help you decide how hot, cold, wet, or windy it might be!

Date:

Astronomy

Nov. 15, 2011 Rise Set
Actual Time 6:12 AM CST 4:49 PM CST
Civil Twilight 5:46 AM CST 5:15 PM CST
Nautical Twilight 5:17 AM CST 5:44 PM CST
Astronomical Twilight 4:49 AM CST 6:12 PM CST
Moon 8:59 PM CST (11/15) 10:09 AM CST (11/15)
Length of Visible Light 11h 28m
Length of Day
10h 37m
Waning Gibbous, 79% of the Moon is Illuminated
Nov 15
Waning Gibbous
Nov 18
Last Quarter
Nov 25
New
Dec 2
First Quarter
Dec 10
Full

Hourly Weather History & Observations

Time (CST) Temp. Dew Point Humidity Pressure Visibility Wind Dir Wind Speed Gust Speed Precip Events Conditions
12:55 AM 68.7 °F 68.7 °F 100% 30.00 in 10.0 mi SE 9.2 mph - N/A   Clear
1:55 AM 68.7 °F 68.7 °F 100% 29.99 in 10.0 mi SE 10.4 mph - N/A   Clear
2:51 AM 69.8 °F 69.8 °F 100% 29.98 in 10.0 mi SE 10.4 mph - N/A   Mostly Cloudy
2:54 AM 69.8 °F 69.8 °F 100% 29.98 in 10.0 mi SE 9.2 mph - N/A   Mostly Cloudy
2:55 AM 68.9 °F 68.9 °F 100% 29.98 in 10.0 mi SE 9.2 mph - N/A   Mostly Cloudy
3:11 AM 68.0 °F 68.0 °F 100% 29.98 in 10.0 mi SE 10.4 mph - N/A   Scattered Clouds
3:55 AM 68.7 °F 68.7 °F 100% 29.97 in 10.0 mi SE 8.1 mph - N/A   Partly Cloudy
4:04 AM 69.8 °F 69.8 °F 100% 29.97 in 10.0 mi ESE 8.1 mph - N/A   Mostly Cloudy
4:17 AM 69.8 °F 69.8 °F 100% 29.97 in 10.0 mi SE 9.2 mph - N/A   Mostly Cloudy
4:26 AM 69.8 °F 69.8 °F 100% 29.97 in 10.0 mi SE 9.2 mph - N/A   Overcast
4:29 AM 69.8 °F 69.8 °F 100% 29.97 in 10.0 mi ESE 8.1 mph - N/A   Overcast
4:31 AM 69.8 °F 69.8 °F 100% 29.97 in 10.0 mi ESE 8.1 mph - N/A   Mostly Cloudy
4:32 AM 69.8 °F 69.8 °F 100% 29.97 in 10.0 mi ESE 8.1 mph - N/A   Mostly Cloudy
4:35 AM 69.8 °F 69.8 °F 100% 29.97 in 10.0 mi ESE 9.2 mph - N/A   Mostly Cloudy
4:40 AM 69.8 °F 69.8 °F 100% 29.97 in 10.0 mi ESE 10.4 mph - N/A   Mostly Cloudy
4:42 AM 69.8 °F 69.8 °F 100% 29.96 in 10.0 mi ESE 10.4 mph - N/A   Mostly Cloudy
4:55 AM 69.4 °F 69.4 °F 100% 29.96 in 10.0 mi SE 10.4 mph - N/A   Mostly Cloudy
5:05 AM 69.8 °F 69.8 °F 100% 29.96 in 10.0 mi SE 11.5 mph - N/A   Overcast
5:45 AM 69.8 °F 69.8 °F 100% 29.97 in 10.0 mi SE 10.4 mph - N/A   Overcast
5:55 AM 69.4 °F 69.4 °F 100% 29.97 in 10.0 mi ESE 9.2 mph - N/A   Overcast
6:01 AM 69.8 °F 69.8 °F 100% 29.97 in 10.0 mi ESE 10.4 mph - N/A   Overcast
7:01 AM 69.8 °F 69.8 °F 100% 29.99 in 6.0 mi ESE 8.1 mph - N/A Rain Light Rain
7:11 AM 69.8 °F 69.8 °F 100% 29.99 in 7.0 mi ESE 8.1 mph - N/A   Overcast
7:55 AM 69.8 °F 69.8 °F 100% 30.00 in 3.0 mi SE 8.1 mph - N/A   Overcast
8:07 AM 69.8 °F 69.8 °F 100% 30.00 in 8.0 mi ESE 10.4 mph - N/A   Light Drizzle
8:17 AM 69.8 °F 69.8 °F 100% 30.01 in 6.0 mi SE 8.1 mph - N/A   Overcast
8:44 AM 71.6 °F 71.6 °F 100% 30.01 in 10.0 mi ESE 9.2 mph - N/A   Overcast
8:51 AM 71.6 °F 71.6 °F 100% 30.01 in 10.0 mi ESE 11.5 mph - N/A   Overcast
8:55 AM 70.9 °F 70.9 °F 100% 30.01 in 10.0 mi ESE 11.5 mph - 0.00 in   Overcast
9:13 AM 71.6 °F 71.6 °F 100% 30.01 in 10.0 mi ESE 12.7 mph - N/A   Light Drizzle
9:22 AM 71.6 °F 71.6 °F 100% 30.01 in 10.0 mi ESE 11.5 mph - N/A   Overcast
9:55 AM 72.1 °F 72.0 °F 99% 30.01 in 10.0 mi ESE 8.1 mph - 0.00 in   Overcast
10:24 AM 73.4 °F 71.6 °F 94% 30.01 in 10.0 mi SE 12.7 mph - N/A   Mostly Cloudy
10:36 AM 73.4 °F 71.6 °F 94% 30.01 in 10.0 mi SE 12.7 mph - N/A   Mostly Cloudy
10:53 AM 73.4 °F 71.6 °F 94% 30.00 in 10.0 mi SE 13.8 mph 21.9 mph N/A   Mostly Cloudy
10:55 AM 73.4 °F 70.7 °F 91% 30.00 in 10.0 mi SE 17.3 mph 21.9 mph N/A   Mostly Cloudy
11:00 AM 73.4 °F 69.8 °F 88% 30.00 in 10.0 mi SE 10.4 mph 19.6 mph N/A   Overcast
11:02 AM 73.4 °F 69.8 °F 88% 30.00 in 10.0 mi SE 12.7 mph 19.6 mph N/A   Overcast
11:28 AM 73.4 °F 69.8 °F 88% 29.99 in 10.0 mi SE 12.7 mph - N/A   Overcast
11:29 AM 73.4 °F 69.8 °F 88% 29.99 in 10.0 mi SE 11.5 mph - N/A   Overcast
11:32 AM 73.4 °F 69.8 °F 88% 29.99 in 10.0 mi SE 12.7 mph - N/A   Overcast
11:33 AM 73.4 °F 69.8 °F 88% 29.99 in 10.0 mi SE 11.5 mph - N/A   Overcast
11:34 AM 73.4 °F 69.8 °F 88% 29.99 in 10.0 mi SE 11.5 mph - N/A   Overcast
11:41 AM 73.4 °F 69.8 °F 88% 29.99 in 10.0 mi SE 11.5 mph - N/A   Overcast
11:45 AM 73.4 °F 69.8 °F 88% 29.99 in 10.0 mi SE 11.5 mph - N/A   Overcast
11:55 AM 73.6 °F 70.2 °F 89% 29.98 in 10.0 mi SE 10.4 mph 19.6 mph N/A   Overcast
12:01 PM 73.4 °F 69.8 °F 88% 29.98 in 10.0 mi SE 11.5 mph 18.4 mph N/A   Overcast
12:11 PM 73.4 °F 69.8 °F 88% 29.98 in 10.0 mi SE 11.5 mph 18.4 mph N/A   Overcast
12:16 PM 73.4 °F 69.8 °F 88% 29.98 in 10.0 mi SE 10.4 mph - N/A   Overcast
12:32 PM 73.4 °F 69.8 °F 88% 29.96 in 10.0 mi ESE 11.5 mph - N/A   Overcast
12:41 PM 73.4 °F 69.8 °F 88% 29.96 in 10.0 mi ESE 12.7 mph 19.6 mph N/A   Mostly Cloudy
12:50 PM 73.4 °F 69.8 °F 88% 29.96 in 10.0 mi SE 9.2 mph - N/A   Mostly Cloudy
12:51 PM 73.4 °F 69.8 °F 88% 29.96 in 10.0 mi SE 9.2 mph - N/A   Mostly Cloudy
12:53 PM 73.4 °F 69.8 °F 88% 29.96 in 10.0 mi ESE 12.7 mph - N/A   Mostly Cloudy
12:55 PM 73.4 °F 69.4 °F 87% 29.96 in 10.0 mi SE 11.5 mph 18.4 mph N/A   Mostly Cloudy
1:20 PM 73.4 °F 69.8 °F 88% 29.95 in 10.0 mi SE 11.5 mph - N/A   Scattered Clouds
1:41 PM 73.4 °F 69.8 °F 88% 29.94 in 10.0 mi SE 10.4 mph - N/A   Mostly Cloudy
1:55 PM 73.9 °F 70.2 °F 88% 29.94 in 10.0 mi SE 12.7 mph 19.6 mph N/A   Mostly Cloudy
2:55 PM 73.2 °F 70.5 °F 91% 29.92 in 10.0 mi SE 12.7 mph 18.4 mph N/A   Overcast
2:57 PM 73.4 °F 69.8 °F 88% 29.92 in 10.0 mi SE 10.4 mph 18.4 mph N/A   Overcast
3:11 PM 73.4 °F 69.8 °F 88% 29.92 in 10.0 mi SE 11.5 mph - N/A   Overcast
3:20 PM 73.4 °F 71.6 °F 94% 29.92 in 10.0 mi SE 9.2 mph - N/A   Overcast
3:55 PM 72.3 °F 71.1 °F 96% 29.91 in 10.0 mi SE 11.5 mph - N/A   Overcast
4:37 PM 71.6 °F 71.6 °F 100% 29.90 in 10.0 mi SE 10.4 mph - N/A   Overcast
4:39 PM 71.6 °F 71.6 °F 100% 29.90 in 10.0 mi SE 10.4 mph - N/A   Overcast
4:46 PM 71.6 °F 71.6 °F 100% 29.91 in 10.0 mi SE 10.4 mph - N/A   Overcast
4:55 PM 71.6 °F 71.6 °F 100% 29.92 in 10.0 mi SE 10.4 mph - N/A   Overcast
5:24 PM 71.6 °F 71.6 °F 100% 29.92 in 4.0 mi SE 6.9 mph - N/A   Overcast
5:57 PM 71.6 °F 71.6 °F 100% 29.92 in 4.0 mi SE 8.1 mph - N/A   Overcast
6:56 PM 71.6 °F 71.6 °F 100% 29.94 in 4.0 mi SE 8.1 mph - N/A   Overcast
7:56 PM 71.6 °F 71.6 °F 100% 29.92 in 4.0 mi SE 10.4 mph - N/A   Overcast
8:22 PM 71.6 °F 71.6 °F 100% 29.93 in 4.0 mi SSE 8.1 mph - N/A   Mostly Cloudy
8:56 PM 71.6 °F 71.6 °F 100% 29.92 in 4.0 mi SSE 9.2 mph - N/A   Overcast
9:58 PM 73.4 °F 73.4 °F 100% 29.91 in 10.0 mi SSE 11.5 mph - N/A   Mostly Cloudy
10:14 PM 71.6 °F 71.6 °F 100% 29.90 in 10.0 mi South 9.2 mph - N/A   Overcast
10:40 PM 71.6 °F 71.6 °F 100% 29.90 in 9.0 mi SSE 10.4 mph - N/A   Overcast
10:55 PM 71.6 °F 71.6 °F 100% 29.92 in 9.0 mi SSE 10.4 mph - N/A   Overcast
11:02 PM 71.6 °F 71.6 °F 100% 29.91 in 8.0 mi South 10.4 mph - N/A   Overcast
11:13 PM 71.6 °F 71.6 °F 100% 29.91 in 8.0 mi South 8.1 mph - N/A   Overcast
11:55 PM 71.6 °F 71.6 °F 100% 29.91 in 6.0 mi South 8.1 mph - N/A   Overcast